createdAt,value
2022-10-26T00:02:05.412Z,92.39
2022-10-26T00:04:36.308Z,92.25
2022-10-26T00:07:04.876Z,92.32
2022-10-26T00:09:36.438Z,92.34
2022-10-26T00:12:05.744Z,92.53
2022-10-26T00:14:37.837Z,92.63
2022-10-26T00:17:07.133Z,92.62
2022-10-26T00:19:38.560Z,92.89
2022-10-26T00:22:07.568Z,92.79
2022-10-26T00:24:38.657Z,92.87
2022-10-26T00:27:07.436Z,92.71
2022-10-26T00:29:37.977Z,92.73
2022-10-26T00:32:07.143Z,92.57
2022-10-26T00:34:35.966Z,92.71
2022-10-26T00:37:08.119Z,92.95
2022-10-26T00:39:37.085Z,92.75
2022-10-26T00:42:07.777Z,92.65
2022-10-26T00:44:49.928Z,92.80
2022-10-26T00:47:45.519Z,92.97
2022-10-26T00:50:20.604Z,92.69
2022-10-26T00:52:52.312Z,92.72
2022-10-26T00:55:29.236Z,92.67
2022-10-26T00:58:02.727Z,92.97
2022-10-26T01:00:34.164Z,92.80
2022-10-26T01:03:11.149Z,92.60
2022-10-26T01:05:43.022Z,92.41
2022-10-26T01:08:13.617Z,92.53
2022-10-26T01:10:44.358Z,92.65
2022-10-26T01:13:15.773Z,92.52
2022-10-26T01:15:47.380Z,92.55
2022-10-26T01:18:53.571Z,92.60
2022-10-26T01:22:05.122Z,92.64
2022-10-26T01:25:11.266Z,92.96
2022-10-26T01:27:43.778Z,92.65
2022-10-26T01:30:19.776Z,92.79
2022-10-26T01:33:15.350Z,92.70
2022-10-26T01:36:06.076Z,93.02
2022-10-26T01:39:09.266Z,92.64
2022-10-26T01:42:02.357Z,92.82
2022-10-26T01:44:40.089Z,92.92
2022-10-26T01:47:15.243Z,92.98
2022-10-26T01:49:50.158Z,92.68
2022-10-26T01:52:20.454Z,92.73
2022-10-26T01:54:49.734Z,92.79
2022-10-26T01:57:21.900Z,92.80
2022-10-26T02:00:11.840Z,92.98
2022-10-26T02:03:04.913Z,93.07
2022-10-26T02:05:53.935Z,93.00
2022-10-26T02:08:54.851Z,92.96
2022-10-26T02:11:39.645Z,92.82
2022-10-26T02:17:06.661Z,93.26
2022-10-26T02:19:46.480Z,93.23
2022-10-26T02:22:29.413Z,92.85
2022-10-26T02:25:02.329Z,92.93
2022-10-26T02:27:37.334Z,92.85
2022-10-26T02:30:06.766Z,92.92
2022-10-26T02:32:38.256Z,93.76
2022-10-26T02:35:09.582Z,93.62
2022-10-26T02:37:41.533Z,93.62
2022-10-26T02:40:14.625Z,93.24
2022-10-26T02:42:47.878Z,93.21
2022-10-26T02:45:39.865Z,92.89
2022-10-26T02:48:09.573Z,92.85
2022-10-26T02:51:13.483Z,92.84
2022-10-26T02:53:46.260Z,92.74
2022-10-26T02:56:29.539Z,92.77
2022-10-26T02:59:04.205Z,92.67
2022-10-26T03:01:36.906Z,92.77
2022-10-26T03:04:06.998Z,92.87
2022-10-26T03:06:35.891Z,93.05
2022-10-26T03:09:06.357Z,92.67
2022-10-26T03:11:41.534Z,92.71
2022-10-26T03:14:10.756Z,92.71
2022-10-26T03:16:39.554Z,92.92
2022-10-26T03:19:09.941Z,92.65
2022-10-26T03:21:40.100Z,92.60
2022-10-26T03:24:10.588Z,93.03
2022-10-26T03:26:40.948Z,93.18
2022-10-26T03:29:12.190Z,93.17
2022-10-26T03:31:42.722Z,93.12
2022-10-26T03:34:11.342Z,93.10
2022-10-26T03:36:39.975Z,93.03
2022-10-26T03:39:09.690Z,93.07
2022-10-26T03:41:38.292Z,93.05
2022-10-26T03:44:07.591Z,92.97
2022-10-26T03:46:37.287Z,92.93
2022-10-26T03:49:07.686Z,93.18
2022-10-26T03:51:36.324Z,93.05
2022-10-26T03:54:06.310Z,93.10
2022-10-26T03:56:37.474Z,93.14
2022-10-26T03:59:08.501Z,92.73
2022-10-26T04:01:39.357Z,93.00
2022-10-26T04:05:00.008Z,93.10
2022-10-26T04:07:30.471Z,93.04
2022-10-26T04:10:03.108Z,93.03
2022-10-26T04:12:38.822Z,93.11
2022-10-26T04:15:08.792Z,93.41
2022-10-26T04:17:39.676Z,93.26
2022-10-26T04:20:09.395Z,93.29
2022-10-26T04:22:44.714Z,93.50
2022-10-26T04:25:14.884Z,93.59
2022-10-26T04:27:43.468Z,93.55
2022-10-26T04:30:14.284Z,93.56
2022-10-26T04:32:43.154Z,93.54
2022-10-26T04:35:15.325Z,93.58
2022-10-26T04:37:44.604Z,93.72
2022-10-26T04:40:13.838Z,93.67
2022-10-26T04:42:47.464Z,93.68
2022-10-26T04:45:17.366Z,93.53
2022-10-26T04:47:46.036Z,93.44
2022-10-26T04:50:18.285Z,93.51
2022-10-26T04:52:51.441Z,93.71
2022-10-26T04:55:22.039Z,93.85
2022-10-26T04:57:55.856Z,93.65
2022-10-26T05:00:28.162Z,93.62
2022-10-26T05:03:48.896Z,93.38
2022-10-26T05:06:18.977Z,93.54
2022-10-26T05:08:51.113Z,93.69
2022-10-26T05:11:20.287Z,93.82
2022-10-26T05:13:49.749Z,93.99
2022-10-26T05:16:19.040Z,93.99
2022-10-26T05:18:52.264Z,94.15
2022-10-26T05:21:24.614Z,94.09
2022-10-26T05:23:55.762Z,94.02
2022-10-26T05:26:26.493Z,94.04
2022-10-26T05:28:58.323Z,93.88
2022-10-26T05:31:30.238Z,93.88
2022-10-26T05:34:00.551Z,93.92
2022-10-26T05:36:30.262Z,94.02
2022-10-26T05:39:01.930Z,93.87
2022-10-26T05:41:30.888Z,93.98
2022-10-26T05:44:00.668Z,93.86
2022-10-26T05:46:29.524Z,94.02
2022-10-26T05:49:01.762Z,93.72
2022-10-26T05:51:34.606Z,93.96
2022-10-26T05:54:04.843Z,93.81
2022-10-26T05:56:44.912Z,93.77
2022-10-26T05:59:17.730Z,93.48
2022-10-26T06:02:25.761Z,93.44
2022-10-26T06:05:02.882Z,93.71
2022-10-26T06:07:33.601Z,93.84
2022-10-26T06:10:04.011Z,93.74
2022-10-26T06:12:32.925Z,93.87
2022-10-26T06:15:03.097Z,93.94
2022-10-26T06:18:21.874Z,93.96
2022-10-26T06:21:14.283Z,94.27
2022-10-26T06:24:03.237Z,94.29
2022-10-26T06:26:48.841Z,94.16
2022-10-26T06:29:25.774Z,93.90
2022-10-26T06:31:55.543Z,93.87
2022-10-26T06:34:33.599Z,94.10
2022-10-26T06:37:04.613Z,94.11
2022-10-26T06:39:43.676Z,94.09
2022-10-26T06:42:14.881Z,94.16
2022-10-26T06:44:45.882Z,94.18
2022-10-26T06:47:34.411Z,94.25
2022-10-26T06:50:57.554Z,94.42
2022-10-26T06:56:13.856Z,93.81
2022-10-26T06:58:46.054Z,94.16
2022-10-26T07:01:22.650Z,93.97
2022-10-26T07:03:59.773Z,93.93
2022-10-26T07:06:31.734Z,94.00
2022-10-26T07:09:06.053Z,93.79
2022-10-26T07:11:38.893Z,93.68
2022-10-26T07:14:09.276Z,93.71
2022-10-26T07:16:42.073Z,93.82
2022-10-26T07:19:11.254Z,93.62
2022-10-26T07:21:40.163Z,93.87
2022-10-26T07:24:10.701Z,93.57
2022-10-26T07:26:44.514Z,93.71
2022-10-26T07:29:14.993Z,93.59
2022-10-26T07:31:46.134Z,93.46
2022-10-26T07:34:17.203Z,93.75
2022-10-26T07:36:59.633Z,93.70
2022-10-26T07:39:47.397Z,93.74
2022-10-26T07:42:26.352Z,93.86
2022-10-26T07:44:57.864Z,94.07
2022-10-26T07:47:37.184Z,94.35
2022-10-26T07:50:13.819Z,94.38
2022-10-26T07:52:55.132Z,94.01
2022-10-26T07:55:27.241Z,93.64
2022-10-26T07:58:02.528Z,93.70
2022-10-26T08:00:36.932Z,93.87
2022-10-26T08:03:12.282Z,93.76
2022-10-26T08:05:56.481Z,93.36
2022-10-26T08:08:30.662Z,93.38
2022-10-26T08:11:03.428Z,93.11
2022-10-26T08:13:36.123Z,93.79
2022-10-26T08:16:08.789Z,93.51
2022-10-26T08:18:38.888Z,93.38
2022-10-26T08:21:21.841Z,93.27
2022-10-26T08:23:59.967Z,93.27
2022-10-26T08:26:31.114Z,93.44
2022-10-26T08:29:01.756Z,93.40
2022-10-26T08:31:32.976Z,93.40
2022-10-26T08:34:04.840Z,93.38
2022-10-26T08:36:35.939Z,93.48
2022-10-26T08:39:05.850Z,93.16
2022-10-26T08:41:42.912Z,93.61
2022-10-26T08:44:47.763Z,94.08
2022-10-26T08:47:29.195Z,93.69
2022-10-26T08:50:53.693Z,93.31
2022-10-26T08:54:01.993Z,92.93
2022-10-26T08:56:57.100Z,93.36
2022-10-26T08:59:38.001Z,93.30
2022-10-26T09:02:17.777Z,94.04
2022-10-26T09:04:47.543Z,93.75
2022-10-26T09:07:47.320Z,93.47
2022-10-26T09:10:39.036Z,93.54
2022-10-26T09:13:45.560Z,93.01
2022-10-26T09:16:44.527Z,92.72
2022-10-26T09:19:22.299Z,93.20
2022-10-26T09:22:16.215Z,93.17
2022-10-26T09:24:56.004Z,92.76
2022-10-26T09:27:24.918Z,93.03
2022-10-26T09:29:57.261Z,92.85
2022-10-26T09:32:39.645Z,93.06
2022-10-26T09:35:23.010Z,93.19
2022-10-26T09:38:03.597Z,92.77
2022-10-26T09:40:56.691Z,92.73
2022-10-26T09:43:33.814Z,92.97
2022-10-26T09:46:02.657Z,92.62
2022-10-26T09:48:41.740Z,92.44
2022-10-26T09:51:11.751Z,92.62
2022-10-26T09:53:40.808Z,92.77
2022-10-26T09:56:12.583Z,92.45
2022-10-26T09:58:47.792Z,92.45
2022-10-26T10:01:38.258Z,92.68
2022-10-26T10:04:18.871Z,92.70
2022-10-26T10:06:50.169Z,92.53
2022-10-26T10:09:22.029Z,92.47
2022-10-26T10:12:06.591Z,91.89
2022-10-26T10:14:45.968Z,92.16
2022-10-26T10:17:33.585Z,92.54
2022-10-26T10:20:22.884Z,92.75
2022-10-26T10:23:06.179Z,92.73
2022-10-26T10:25:42.447Z,92.46
2022-10-26T10:28:25.170Z,92.52
2022-10-26T10:31:06.858Z,92.65
2022-10-26T10:33:41.281Z,92.73
2022-10-26T10:36:20.323Z,92.67
2022-10-26T10:38:51.615Z,92.81
2022-10-26T10:41:31.108Z,92.63
2022-10-26T10:44:28.617Z,92.47
2022-10-26T10:47:03.854Z,93.17
2022-10-26T10:49:34.517Z,93.05
2022-10-26T10:52:03.565Z,92.82
2022-10-26T10:54:41.141Z,92.72
2022-10-26T10:57:47.006Z,92.49
2022-10-26T11:00:26.448Z,92.29
2022-10-26T11:03:47.264Z,92.70
2022-10-26T11:10:50.527Z,92.59
2022-10-26T11:13:35.119Z,92.21
2022-10-26T11:16:14.465Z,92.42
2022-10-26T11:18:50.935Z,92.69
2022-10-26T11:21:27.081Z,92.46
2022-10-26T11:24:14.236Z,92.48
2022-10-26T11:26:55.973Z,92.79
2022-10-26T11:29:30.347Z,92.69
2022-10-26T11:32:38.656Z,92.39
2022-10-26T11:35:37.128Z,92.35
2022-10-26T11:38:38.856Z,92.34
2022-10-26T11:41:36.629Z,92.46
2022-10-26T11:44:23.854Z,92.87
2022-10-26T11:47:19.160Z,92.78
2022-10-26T11:49:47.916Z,92.91
2022-10-26T11:52:35.215Z,93.22
2022-10-26T11:55:05.263Z,93.00
2022-10-26T11:57:38.414Z,92.82
2022-10-26T12:00:17.681Z,92.77
2022-10-26T12:02:56.238Z,93.13
2022-10-26T12:05:34.329Z,93.40
2022-10-26T12:08:16.883Z,93.48
2022-10-26T12:10:53.034Z,93.26
2022-10-26T12:13:35.769Z,93.33
2022-10-26T12:16:30.640Z,93.25
2022-10-26T12:19:05.664Z,92.87
2022-10-26T12:21:38.415Z,93.24
2022-10-26T12:24:47.487Z,93.33
2022-10-26T12:27:54.788Z,93.35
2022-10-26T12:30:33.839Z,93.49
2022-10-26T12:33:30.140Z,93.50
2022-10-26T12:36:02.599Z,93.08
2022-10-26T12:38:33.806Z,93.38
2022-10-26T12:41:28.427Z,93.02
2022-10-26T12:43:59.190Z,92.92
2022-10-26T12:46:39.485Z,93.05
2022-10-26T12:49:47.945Z,92.85
2022-10-26T12:52:28.887Z,92.89
2022-10-26T12:55:12.828Z,92.94
2022-10-26T12:58:07.411Z,93.09
2022-10-26T13:00:46.496Z,93.19
2022-10-26T13:03:34.557Z,93.14
2022-10-26T13:06:34.103Z,93.19
2022-10-26T13:09:14.102Z,93.15
2022-10-26T13:11:53.145Z,93.16
2022-10-26T13:14:37.941Z,93.10
2022-10-26T13:17:07.540Z,93.16
2022-10-26T13:19:48.123Z,93.07
2022-10-26T13:22:23.334Z,93.03
2022-10-26T13:25:06.409Z,93.17
2022-10-26T13:27:35.308Z,93.34
2022-10-26T13:30:03.928Z,93.19
2022-10-26T13:32:36.965Z,93.20
2022-10-26T13:35:12.338Z,93.23
2022-10-26T13:37:47.382Z,93.12
2022-10-26T13:40:22.707Z,92.97
2022-10-26T13:42:57.492Z,92.90
2022-10-26T13:45:30.359Z,93.01
2022-10-26T13:48:25.306Z,92.89
2022-10-26T13:51:02.170Z,93.33
2022-10-26T13:53:56.120Z,92.86
2022-10-26T13:56:49.724Z,92.92
2022-10-26T14:02:14.501Z,93.14
2022-10-26T14:04:48.965Z,93.09
2022-10-26T14:07:29.813Z,93.11
2022-10-26T14:10:00.499Z,92.81
2022-10-26T14:12:30.114Z,93.20
2022-10-26T14:15:09.014Z,93.40
2022-10-26T14:17:38.625Z,93.22
2022-10-26T14:20:20.754Z,93.09
2022-10-26T14:22:52.623Z,93.04
2022-10-26T14:25:36.250Z,93.03
2022-10-26T14:28:24.413Z,93.00
2022-10-26T14:31:12.988Z,92.80
2022-10-26T14:33:44.289Z,92.97
2022-10-26T14:36:15.868Z,93.11
2022-10-26T14:38:50.345Z,93.06
2022-10-26T14:41:20.987Z,92.96
2022-10-26T14:43:52.137Z,93.01
2022-10-26T14:46:25.845Z,93.17
2022-10-26T14:49:01.790Z,92.86
2022-10-26T14:51:37.497Z,92.93
2022-10-26T14:54:19.614Z,93.10
2022-10-26T14:56:51.887Z,92.93
2022-10-26T14:59:28.209Z,92.92
2022-10-26T15:02:22.855Z,93.00
2022-10-26T15:05:42.707Z,92.86
2022-10-26T15:08:55.832Z,93.12
2022-10-26T15:11:28.166Z,92.98
2022-10-26T15:14:01.298Z,93.08
2022-10-26T15:16:41.263Z,92.86
2022-10-26T15:19:13.150Z,93.16
2022-10-26T15:21:51.192Z,93.29
2022-10-26T15:24:37.421Z,93.38
2022-10-26T15:27:18.937Z,93.26
2022-10-26T15:29:53.030Z,93.49
2022-10-26T15:32:33.281Z,93.82
2022-10-26T15:35:12.630Z,93.83
2022-10-26T15:37:42.761Z,93.51
2022-10-26T15:40:15.149Z,93.22
2022-10-26T15:42:46.823Z,93.46
2022-10-26T15:45:26.967Z,93.19
2022-10-26T15:47:58.814Z,93.27
2022-10-26T15:50:32.107Z,93.45
2022-10-26T15:53:04.024Z,93.43
2022-10-26T15:55:34.170Z,93.43
2022-10-26T15:58:04.682Z,93.05
2022-10-26T16:00:34.920Z,92.65
2022-10-26T16:03:14.654Z,92.69
2022-10-26T16:05:45.174Z,93.06
2022-10-26T16:08:18.518Z,93.15
2022-10-26T16:10:49.265Z,92.91
2022-10-26T16:13:18.334Z,93.03
2022-10-26T16:15:48.072Z,92.97
2022-10-26T16:18:18.246Z,92.99
2022-10-26T16:20:52.621Z,92.93
2022-10-26T16:23:22.958Z,92.83
2022-10-26T16:25:53.936Z,92.77
2022-10-26T16:28:23.655Z,92.76
2022-10-26T16:31:00.695Z,93.06
2022-10-26T16:33:30.252Z,93.13
2022-10-26T16:36:00.400Z,93.24
2022-10-26T16:38:33.423Z,93.15
2022-10-26T16:41:05.165Z,92.84
2022-10-26T16:43:37.416Z,92.65
2022-10-26T16:46:18.588Z,92.37
2022-10-26T16:48:50.978Z,92.34
2022-10-26T16:51:28.077Z,92.32
2022-10-26T16:53:59.897Z,92.16
2022-10-26T16:56:31.034Z,92.37
2022-10-26T16:59:02.374Z,92.22
2022-10-26T17:01:32.863Z,92.26
2022-10-26T17:06:33.559Z,92.37
2022-10-26T17:09:02.874Z,92.34
2022-10-26T17:11:32.328Z,92.24
2022-10-26T17:14:01.496Z,92.06
2022-10-26T17:16:32.838Z,92.07
2022-10-26T17:19:03.548Z,91.97
2022-10-26T17:21:35.649Z,91.90
2022-10-26T17:24:07.598Z,91.61
2022-10-26T17:26:39.397Z,91.59
2022-10-26T17:29:16.242Z,91.81
2022-10-26T17:31:50.584Z,91.35
2022-10-26T17:34:24.720Z,91.61
2022-10-26T17:36:55.046Z,91.65
2022-10-26T17:39:25.698Z,91.60
2022-10-26T17:41:57.718Z,91.60
2022-10-26T17:44:27.814Z,91.40
2022-10-26T17:46:59.898Z,91.35
2022-10-26T17:49:35.800Z,91.65
2022-10-26T17:52:08.875Z,91.72
2022-10-26T17:54:41.329Z,91.92
2022-10-26T17:57:14.805Z,91.78
2022-10-26T17:59:49.468Z,91.84
2022-10-26T18:02:29.265Z,91.95
2022-10-26T18:05:03.834Z,91.95
2022-10-26T18:07:43.084Z,91.77
2022-10-26T18:10:37.670Z,91.51
2022-10-26T18:13:21.074Z,91.40
2022-10-26T18:15:59.787Z,91.16
2022-10-26T18:18:34.076Z,91.29
2022-10-26T18:21:16.135Z,91.17
2022-10-26T18:23:48.475Z,91.27
2022-10-26T18:26:20.623Z,90.88
2022-10-26T18:28:50.615Z,90.92
2022-10-26T18:31:28.102Z,90.93
2022-10-26T18:34:00.587Z,91.02
2022-10-26T18:36:33.323Z,91.27
2022-10-26T18:39:04.844Z,91.30
2022-10-26T18:41:42.427Z,90.74
2022-10-26T18:44:15.660Z,91.10
2022-10-26T18:46:52.886Z,90.81
2022-10-26T18:49:24.696Z,90.63
2022-10-26T18:52:04.685Z,90.25
2022-10-26T18:54:41.975Z,90.35
2022-10-26T18:57:12.959Z,90.34
2022-10-26T18:59:44.663Z,90.30
2022-10-26T19:02:18.708Z,90.43
2022-10-26T19:04:54.639Z,90.46
2022-10-26T19:07:30.325Z,90.61
2022-10-26T19:10:03.610Z,90.75
2022-10-26T19:12:34.017Z,90.80
2022-10-26T19:15:06.928Z,90.11
2022-10-26T19:17:37.816Z,90.14
2022-10-26T19:20:11.273Z,90.67
2022-10-26T19:22:41.971Z,90.87
2022-10-26T19:25:14.675Z,90.92
2022-10-26T19:27:47.368Z,90.79
2022-10-26T19:30:18.708Z,90.65
2022-10-26T19:32:54.684Z,90.87
2022-10-26T19:35:24.896Z,90.96
2022-10-26T19:37:56.435Z,90.99
2022-10-26T19:40:27.635Z,90.92
2022-10-26T19:43:03.783Z,90.84
2022-10-26T19:45:35.145Z,90.76
2022-10-26T19:48:06.855Z,90.64
2022-10-26T19:50:43.756Z,90.58
2022-10-26T19:53:17.943Z,90.42
2022-10-26T19:55:48.845Z,90.72
2022-10-26T19:58:22.026Z,90.94
2022-10-26T20:00:59.715Z,90.68
2022-10-26T20:03:56.965Z,90.70
2022-10-26T20:06:29.435Z,90.92
2022-10-26T20:08:59.727Z,91.06
2022-10-26T20:11:33.005Z,90.91
2022-10-26T20:14:06.668Z,90.99
2022-10-26T20:16:38.894Z,91.05
2022-10-26T20:19:09.354Z,90.66
2022-10-26T20:21:41.147Z,90.14
2022-10-26T20:24:11.570Z,90.02
2022-10-26T20:26:44.604Z,89.79
2022-10-26T20:29:16.087Z,89.70
2022-10-26T20:31:49.830Z,90.09
2022-10-26T20:34:25.663Z,90.34
2022-10-26T20:36:56.901Z,90.25
2022-10-26T20:39:27.749Z,90.38
2022-10-26T20:42:00.025Z,90.32
2022-10-26T20:44:36.078Z,90.57
2022-10-26T20:47:06.475Z,90.59
2022-10-26T20:49:38.536Z,90.64
2022-10-26T20:52:21.072Z,90.43
2022-10-26T20:55:28.823Z,89.56
2022-10-26T20:58:09.349Z,89.57
2022-10-26T21:00:45.800Z,90.17
2022-10-26T21:07:42.797Z,90.24
2022-10-26T21:10:13.768Z,90.29
2022-10-26T21:12:46.060Z,89.84
2022-10-26T21:15:15.955Z,89.60
2022-10-26T21:17:45.387Z,89.71
2022-10-26T21:20:15.434Z,89.97
2022-10-26T21:22:44.516Z,90.32
2022-10-26T21:25:14.884Z,90.52
2022-10-26T21:27:43.827Z,90.61
2022-10-26T21:30:13.887Z,90.73
2022-10-26T21:32:48.693Z,90.67
2022-10-26T21:35:18.836Z,90.83
2022-10-26T21:37:49.549Z,90.98
2022-10-26T21:40:19.088Z,90.70
2022-10-26T21:42:52.742Z,90.31
2022-10-26T21:45:23.106Z,90.72
2022-10-26T21:47:53.055Z,90.99
2022-10-26T21:50:24.338Z,90.54
2022-10-26T21:52:55.028Z,90.55
2022-10-26T21:55:25.445Z,90.80
2022-10-26T21:57:54.868Z,90.79
2022-10-26T22:00:24.060Z,91.05
2022-10-26T22:04:07.604Z,91.08
2022-10-26T22:06:36.650Z,90.19
2022-10-26T22:09:09.168Z,90.37
2022-10-26T22:11:38.692Z,90.83
2022-10-26T22:14:08.863Z,90.75
2022-10-26T22:16:38.238Z,90.98
2022-10-26T22:19:08.528Z,90.72
2022-10-26T22:21:41.530Z,90.56
2022-10-26T22:24:12.829Z,90.87
2022-10-26T22:26:44.917Z,90.73
2022-10-26T22:29:13.898Z,91.04
2022-10-26T22:31:45.139Z,91.13
2022-10-26T22:34:16.993Z,90.93
2022-10-26T22:36:46.096Z,90.49
2022-10-26T22:39:15.998Z,89.87
2022-10-26T22:41:48.581Z,89.77
2022-10-26T22:44:21.458Z,89.91
2022-10-26T22:46:52.467Z,89.88
2022-10-26T22:49:21.318Z,90.15
2022-10-26T22:51:50.229Z,90.43
2022-10-26T22:54:20.288Z,90.62
2022-10-26T22:56:50.210Z,90.78
2022-10-26T22:59:21.728Z,90.62
2022-10-26T23:01:52.592Z,90.44
2022-10-26T23:04:23.028Z,90.57
2022-10-26T23:06:52.742Z,90.83
2022-10-26T23:09:22.740Z,90.89
2022-10-26T23:11:53.489Z,90.89
2022-10-26T23:14:24.618Z,90.92
2022-10-26T23:16:54.351Z,91.08
2022-10-26T23:19:24.128Z,91.34
2022-10-26T23:21:53.218Z,91.54
2022-10-26T23:24:22.508Z,91.56
2022-10-26T23:26:52.178Z,91.54
2022-10-26T23:29:21.797Z,91.16
2022-10-26T23:31:54.326Z,90.84
2022-10-26T23:34:25.806Z,90.58
2022-10-26T23:36:56.047Z,90.42
2022-10-26T23:39:27.355Z,90.37
2022-10-26T23:41:57.406Z,90.55
2022-10-26T23:44:27.071Z,90.55
2022-10-26T23:46:57.251Z,90.57
2022-10-26T23:49:28.324Z,90.66
2022-10-26T23:51:58.688Z,90.68
2022-10-26T23:54:28.898Z,90.84
2022-10-26T23:57:00.978Z,90.75
2022-10-26T23:59:30.208Z,90.88
